sensor_id;sensor_type;location;lat;lon;timestamp;pressure;altitude;pressure_sealevel;temperature;humidity
72409;BME280;60402;48.082;11.628;2022-07-29T00:00:18;95313.47;;;19.63;63.65
72409;BME280;60402;48.082;11.628;2022-07-29T00:02:44;95307.16;;;19.59;63.68
72409;BME280;60402;48.082;11.628;2022-07-29T00:05:09;95299.56;;;19.56;63.95
72409;BME280;60402;48.082;11.628;2022-07-29T00:07:36;95305.25;;;19.50;63.56
72409;BME280;60402;48.082;11.628;2022-07-29T00:10:01;95304.56;;;19.61;63.68
72409;BME280;60402;48.082;11.628;2022-07-29T00:12:27;95304.88;;;19.63;63.28
72409;BME280;60402;48.082;11.628;2022-07-29T00:14:56;95307.22;;;19.64;63.16
72409;BME280;60402;48.082;11.628;2022-07-29T00:17:22;95309.88;;;19.68;63.20
72409;BME280;60402;48.082;11.628;2022-07-29T00:19:48;95287.16;;;19.64;63.65
72409;BME280;60402;48.082;11.628;2022-07-29T00:22:13;95304.56;;;19.61;64.46
72409;BME280;60402;48.082;11.628;2022-07-29T00:24:39;95287.94;;;19.65;64.27
72409;BME280;60402;48.082;11.628;2022-07-29T00:27:04;95303.38;;;19.73;64.23
72409;BME280;60402;48.082;11.628;2022-07-29T00:29:30;95291.03;;;19.61;64.53
72409;BME280;60402;48.082;11.628;2022-07-29T00:31:55;95300.44;;;19.62;65.35
72409;BME280;60402;48.082;11.628;2022-07-29T00:34:20;95296.47;;;19.59;65.23
72409;BME280;60402;48.082;11.628;2022-07-29T00:37:04;95302.00;;;19.63;65.38
72409;BME280;60402;48.082;11.628;2022-07-29T00:39:30;95302.94;;;19.54;65.92
72409;BME280;60402;48.082;11.628;2022-07-29T00:41:55;95296.28;;;19.63;65.82
72409;BME280;60402;48.082;11.628;2022-07-29T00:44:20;95290.19;;;19.55;66.29
72409;BME280;60402;48.082;11.628;2022-07-29T00:46:46;95279.78;;;19.58;65.84
72409;BME280;60402;48.082;11.628;2022-07-29T00:49:12;95277.78;;;19.64;65.91
72409;BME280;60402;48.082;11.628;2022-07-29T00:51:38;95262.88;;;19.60;65.83
72409;BME280;60402;48.082;11.628;2022-07-29T00:54:04;95264.69;;;19.57;66.14
72409;BME280;60402;48.082;11.628;2022-07-29T00:56:31;95260.41;;;19.47;66.67
72409;BME280;60402;48.082;11.628;2022-07-29T00:58:57;95252.88;;;19.50;66.67
72409;BME280;60402;48.082;11.628;2022-07-29T01:01:23;95255.16;;;19.40;66.80
72409;BME280;60402;48.082;11.628;2022-07-29T01:03:48;95262.41;;;19.35;67.05
72409;BME280;60402;48.082;11.628;2022-07-29T01:06:15;95253.03;;;19.35;66.58
72409;BME280;60402;48.082;11.628;2022-07-29T01:08:41;95251.50;;;19.39;66.27
72409;BME280;60402;48.082;11.628;2022-07-29T01:11:07;95257.59;;;19.21;67.45
72409;BME280;60402;48.082;11.628;2022-07-29T01:13:33;95226.72;;;19.05;67.02
72409;BME280;60402;48.082;11.628;2022-07-29T01:16:16;95234.03;;;19.06;66.79
72409;BME280;60402;48.082;11.628;2022-07-29T01:18:46;95250.63;;;19.28;66.65
72409;BME280;60402;48.082;11.628;2022-07-29T01:21:41;95251.34;;;19.23;66.47
72409;BME280;60402;48.082;11.628;2022-07-29T01:27:03;95253.69;;;19.24;66.17
72409;BME280;60402;48.082;11.628;2022-07-29T01:29:36;95248.78;;;19.25;65.69
72409;BME280;60402;48.082;11.628;2022-07-29T01:32:08;95246.75;;;19.31;65.37
72409;BME280;60402;48.082;11.628;2022-07-29T01:37:50;95237.59;;;19.27;65.63
72409;BME280;60402;48.082;11.628;2022-07-29T01:40:35;95232.03;;;19.18;65.95
72409;BME280;60402;48.082;11.628;2022-07-29T01:43:09;95247.19;;;19.24;65.91
72409;BME280;60402;48.082;11.628;2022-07-29T01:45:45;95239.03;;;19.11;66.23
72409;BME280;60402;48.082;11.628;2022-07-29T01:50:46;95245.19;;;19.04;66.64
72409;BME280;60402;48.082;11.628;2022-07-29T01:53:18;95250.41;;;19.05;66.50
72409;BME280;60402;48.082;11.628;2022-07-29T01:55:48;95231.66;;;19.04;66.41
72409;BME280;60402;48.082;11.628;2022-07-29T01:58:16;95231.06;;;18.95;67.30
72409;BME280;60402;48.082;11.628;2022-07-29T02:00:44;95227.06;;;18.86;67.47
72409;BME280;60402;48.082;11.628;2022-07-29T02:03:11;95248.41;;;19.11;66.99
72409;BME280;60402;48.082;11.628;2022-07-29T02:05:40;95224.59;;;19.00;67.43
72409;BME280;60402;48.082;11.628;2022-07-29T02:08:06;95225.28;;;18.89;68.06
72409;BME280;60402;48.082;11.628;2022-07-29T02:10:33;95224.75;;;18.90;68.09
72409;BME280;60402;48.082;11.628;2022-07-29T02:13:01;95218.88;;;19.00;67.85
72409;BME280;60402;48.082;11.628;2022-07-29T02:15:30;95209.19;;;18.92;68.35
72409;BME280;60402;48.082;11.628;2022-07-29T02:18:02;95219.13;;;18.96;68.84
72409;BME280;60402;48.082;11.628;2022-07-29T02:20:30;95216.47;;;18.93;68.87
72409;BME280;60402;48.082;11.628;2022-07-29T02:22:58;95206.41;;;18.77;69.30
72409;BME280;60402;48.082;11.628;2022-07-29T02:25:26;95209.75;;;18.70;69.40
72409;BME280;60402;48.082;11.628;2022-07-29T02:27:53;95210.09;;;18.77;69.39
72409;BME280;60402;48.082;11.628;2022-07-29T02:30:22;95208.53;;;18.56;70.56
72409;BME280;60402;48.082;11.628;2022-07-29T02:32:49;95209.31;;;18.56;71.20
72409;BME280;60402;48.082;11.628;2022-07-29T02:35:16;95213.47;;;18.55;71.22
72409;BME280;60402;48.082;11.628;2022-07-29T02:37:44;95198.31;;;18.49;71.56
72409;BME280;60402;48.082;11.628;2022-07-29T02:40:11;95200.31;;;18.43;71.81
72409;BME280;60402;48.082;11.628;2022-07-29T02:42:41;95193.09;;;18.48;71.66
72409;BME280;60402;48.082;11.628;2022-07-29T02:45:08;95195.47;;;18.29;72.05
72409;BME280;60402;48.082;11.628;2022-07-29T02:47:36;95199.94;;;18.56;71.41
72409;BME280;60402;48.082;11.628;2022-07-29T02:55:31;95191.56;;;18.52;71.30
72409;BME280;60402;48.082;11.628;2022-07-29T02:58:05;95185.44;;;18.39;71.57
72409;BME280;60402;48.082;11.628;2022-07-29T03:00:36;95188.66;;;18.47;71.89
72409;BME280;60402;48.082;11.628;2022-07-29T03:03:06;95188.66;;;18.47;71.42
72409;BME280;60402;48.082;11.628;2022-07-29T03:05:32;95180.19;;;18.58;70.46
72409;BME280;60402;48.082;11.628;2022-07-29T03:08:01;95200.28;;;18.63;70.82
72409;BME280;60402;48.082;11.628;2022-07-29T03:10:28;95188.03;;;18.63;70.24
72409;BME280;60402;48.082;11.628;2022-07-29T03:12:57;95189.38;;;18.68;70.20
72409;BME280;60402;48.082;11.628;2022-07-29T03:15:23;95208.28;;;18.80;69.88
72409;BME280;60402;48.082;11.628;2022-07-29T03:17:49;95202.78;;;18.76;70.25
72409;BME280;60402;48.082;11.628;2022-07-29T03:20:16;95199.72;;;18.59;70.87
72409;BME280;60402;48.082;11.628;2022-07-29T03:22:43;95198.88;;;18.07;72.44
72409;BME280;60402;48.082;11.628;2022-07-29T03:25:12;95196.59;;;17.91;74.12
72409;BME280;60402;48.082;11.628;2022-07-29T03:27:38;95182.97;;;17.65;74.87
72409;BME280;60402;48.082;11.628;2022-07-29T03:30:04;95185.31;;;17.67;75.06
72409;BME280;60402;48.082;11.628;2022-07-29T03:32:30;95205.72;;;17.74;75.19
72409;BME280;60402;48.082;11.628;2022-07-29T03:34:55;95200.38;;;17.82;74.31
72409;BME280;60402;48.082;11.628;2022-07-29T03:37:21;95177.69;;;17.78;74.82
72409;BME280;60402;48.082;11.628;2022-07-29T03:39:47;95199.09;;;17.68;75.51
72409;BME280;60402;48.082;11.628;2022-07-29T03:42:15;95190.53;;;17.68;74.90
72409;BME280;60402;48.082;11.628;2022-07-29T03:44:42;95189.94;;;17.64;74.87
72409;BME280;60402;48.082;11.628;2022-07-29T03:47:09;95189.94;;;17.44;75.88
72409;BME280;60402;48.082;11.628;2022-07-29T03:49:36;95198.44;;;17.38;76.39
72409;BME280;60402;48.082;11.628;2022-07-29T03:52:03;95193.41;;;17.33;76.51
72409;BME280;60402;48.082;11.628;2022-07-29T03:54:29;95194.13;;;17.28;76.57
72409;BME280;60402;48.082;11.628;2022-07-29T03:56:57;95197.56;;;17.32;76.41
72409;BME280;60402;48.082;11.628;2022-07-29T03:59:24;95188.53;;;17.19;76.81
72409;BME280;60402;48.082;11.628;2022-07-29T04:01:51;95205.31;;;17.46;75.70
72409;BME280;60402;48.082;11.628;2022-07-29T04:04:17;95187.41;;;17.31;75.50
72409;BME280;60402;48.082;11.628;2022-07-29T04:06:45;95193.66;;;17.50;74.83
72409;BME280;60402;48.082;11.628;2022-07-29T04:09:11;95185.22;;;17.41;75.61
72409;BME280;60402;48.082;11.628;2022-07-29T04:11:39;95191.59;;;17.50;74.85
72409;BME280;60402;48.082;11.628;2022-07-29T04:14:04;95166.69;;;17.51;74.01
72409;BME280;60402;48.082;11.628;2022-07-29T04:16:30;95186.25;;;17.58;74.52
72409;BME280;60402;48.082;11.628;2022-07-29T04:18:55;95201.97;;;17.68;75.05
72409;BME280;60402;48.082;11.628;2022-07-29T04:21:21;95198.44;;;17.58;75.22
72409;BME280;60402;48.082;11.628;2022-07-29T04:23:46;95204.44;;;17.75;74.59
72409;BME280;60402;48.082;11.628;2022-07-29T04:26:15;95199.88;;;17.69;74.71
72409;BME280;60402;48.082;11.628;2022-07-29T04:28:41;95210.81;;;17.85;74.15
72409;BME280;60402;48.082;11.628;2022-07-29T04:31:08;95214.81;;;17.93;74.53
72409;BME280;60402;48.082;11.628;2022-07-29T04:33:33;95205.22;;;17.76;74.52
72409;BME280;60402;48.082;11.628;2022-07-29T04:35:58;95202.44;;;17.81;74.39
72409;BME280;60402;48.082;11.628;2022-07-29T04:38:23;95216.59;;;17.91;73.91
72409;BME280;60402;48.082;11.628;2022-07-29T04:40:49;95225.00;;;18.20;73.23
72409;BME280;60402;48.082;11.628;2022-07-29T04:43:15;95208.00;;;18.31;72.65
72409;BME280;60402;48.082;11.628;2022-07-29T04:45:40;95236.63;;;18.57;72.48
72409;BME280;60402;48.082;11.628;2022-07-29T04:48:06;95208.47;;;18.50;72.53
72409;BME280;60402;48.082;11.628;2022-07-29T04:50:32;95225.44;;;18.80;71.49
72409;BME280;60402;48.082;11.628;2022-07-29T04:52:57;95203.06;;;18.78;71.82
72409;BME280;60402;48.082;11.628;2022-07-29T04:55:23;95221.34;;;18.86;70.74
72409;BME280;60402;48.082;11.628;2022-07-29T04:57:48;95237.25;;;19.19;70.86
72409;BME280;60402;48.082;11.628;2022-07-29T05:00:13;95231.41;;;19.34;70.25
72409;BME280;60402;48.082;11.628;2022-07-29T05:02:39;95237.97;;;19.40;68.99
72409;BME280;60402;48.082;11.628;2022-07-29T05:05:04;95230.38;;;19.69;68.33
72409;BME280;60402;48.082;11.628;2022-07-29T05:07:30;95222.50;;;20.06;67.49
72409;BME280;60402;48.082;11.628;2022-07-29T05:09:55;95238.75;;;20.21;66.86
72409;BME280;60402;48.082;11.628;2022-07-29T05:12:23;95250.91;;;20.47;66.24
72409;BME280;60402;48.082;11.628;2022-07-29T05:14:48;95212.94;;;20.21;65.59
72409;BME280;60402;48.082;11.628;2022-07-29T05:17:13;95237.94;;;20.14;66.71
72409;BME280;60402;48.082;11.628;2022-07-29T05:19:39;95237.72;;;20.24;66.31
72409;BME280;60402;48.082;11.628;2022-07-29T05:22:04;95251.03;;;20.27;65.83
72409;BME280;60402;48.082;11.628;2022-07-29T05:24:30;95240.09;;;20.31;64.99
72409;BME280;60402;48.082;11.628;2022-07-29T05:26:55;95240.09;;;19.77;66.47
72409;BME280;60402;48.082;11.628;2022-07-29T05:29:21;95251.50;;;19.71;66.97
72409;BME280;60402;48.082;11.628;2022-07-29T05:31:46;95249.69;;;19.74;67.38
72409;BME280;60402;48.082;11.628;2022-07-29T05:34:11;95251.34;;;19.86;67.14
72409;BME280;60402;48.082;11.628;2022-07-29T05:36:37;95249.81;;;19.90;66.40
72409;BME280;60402;48.082;11.628;2022-07-29T05:39:02;95260.38;;;20.16;66.37
72409;BME280;60402;48.082;11.628;2022-07-29T05:41:27;95252.34;;;20.26;66.10
72409;BME280;60402;48.082;11.628;2022-07-29T05:43:54;95259.94;;;20.34;66.78
72409;BME280;60402;48.082;11.628;2022-07-29T05:46:19;95260.56;;;20.50;66.30
72409;BME280;60402;48.082;11.628;2022-07-29T05:48:44;95260.88;;;20.68;65.01
72409;BME280;60402;48.082;11.628;2022-07-29T05:51:10;95244.97;;;20.67;63.24
72409;BME280;60402;48.082;11.628;2022-07-29T05:53:35;95261.97;;;20.82;63.60
72409;BME280;60402;48.082;11.628;2022-07-29T05:56:03;95263.28;;;20.87;63.78
72409;BME280;60402;48.082;11.628;2022-07-29T05:58:29;95262.50;;;20.81;62.76
72409;BME280;60402;48.082;11.628;2022-07-29T06:00:55;95269.03;;;20.98;61.78
72409;BME280;60402;48.082;11.628;2022-07-29T06:03:24;95269.00;;;20.81;62.16
72409;BME280;60402;48.082;11.628;2022-07-29T06:05:50;95268.28;;;21.03;61.58
72409;BME280;60402;48.082;11.628;2022-07-29T06:08:15;95272.78;;;21.38;60.91
72409;BME280;60402;48.082;11.628;2022-07-29T06:10:40;95275.41;;;21.47;60.34
72409;BME280;60402;48.082;11.628;2022-07-29T06:13:05;95271.72;;;21.30;60.18
72409;BME280;60402;48.082;11.628;2022-07-29T06:15:31;95268.31;;;21.20;60.58
72409;BME280;60402;48.082;11.628;2022-07-29T06:17:56;95256.28;;;21.16;59.70
72409;BME280;60402;48.082;11.628;2022-07-29T06:20:22;95269.81;;;20.87;61.39
72409;BME280;60402;48.082;11.628;2022-07-29T06:22:47;95271.41;;;21.00;61.24
72409;BME280;60402;48.082;11.628;2022-07-29T06:25:12;95261.75;;;22.04;58.26
72409;BME280;60402;48.082;11.628;2022-07-29T06:27:38;95266.56;;;23.17;55.08
72409;BME280;60402;48.082;11.628;2022-07-29T06:30:03;95274.09;;;23.62;53.30
72409;BME280;60402;48.082;11.628;2022-07-29T06:32:31;95270.44;;;21.92;58.23
72409;BME280;60402;48.082;11.628;2022-07-29T06:34:57;95269.34;;;21.95;57.77
72409;BME280;60402;48.082;11.628;2022-07-29T06:37:22;95269.09;;;21.99;58.31
72409;BME280;60402;48.082;11.628;2022-07-29T06:39:47;95279.16;;;24.65;50.83
72409;BME280;60402;48.082;11.628;2022-07-29T06:42:13;95273.69;;;26.92;45.02
72409;BME280;60402;48.082;11.628;2022-07-29T06:44:38;95282.75;;;24.22;51.86
72409;BME280;60402;48.082;11.628;2022-07-29T06:47:03;95275.69;;;23.27;54.32
72409;BME280;60402;48.082;11.628;2022-07-29T06:49:29;95280.22;;;23.53;53.37
72409;BME280;60402;48.082;11.628;2022-07-29T06:51:55;95292.16;;;22.80;55.07
72409;BME280;60402;48.082;11.628;2022-07-29T06:54:20;95284.44;;;24.12;52.29
72409;BME280;60402;48.082;11.628;2022-07-29T06:56:46;95300.59;;;24.51;51.95
72409;BME280;60402;48.082;11.628;2022-07-29T06:59:12;95280.75;;;24.66;49.68
72409;BME280;60402;48.082;11.628;2022-07-29T07:01:40;95283.84;;;26.13;46.86
72409;BME280;60402;48.082;11.628;2022-07-29T07:04:06;95279.31;;;26.18;47.32
72409;BME280;60402;48.082;11.628;2022-07-29T07:06:32;95287.91;;;25.40;47.98
72409;BME280;60402;48.082;11.628;2022-07-29T07:08:57;95301.44;;;26.61;46.84
72409;BME280;60402;48.082;11.628;2022-07-29T07:11:23;95289.97;;;27.42;44.24
72409;BME280;60402;48.082;11.628;2022-07-29T07:13:48;95288.69;;;27.77;43.30
72409;BME280;60402;48.082;11.628;2022-07-29T07:16:13;95287.75;;;29.39;39.57
72409;BME280;60402;48.082;11.628;2022-07-29T07:18:39;95293.22;;;33.74;31.77
72409;BME280;60402;48.082;11.628;2022-07-29T07:21:04;95303.38;;;35.95;28.29
72409;BME280;60402;48.082;11.628;2022-07-29T07:23:30;95304.63;;;37.89;25.48
72409;BME280;60402;48.082;11.628;2022-07-29T07:25:56;95310.06;;;38.72;24.29
72409;BME280;60402;48.082;11.628;2022-07-29T07:28:21;95312.03;;;39.15;23.41
72409;BME280;60402;48.082;11.628;2022-07-29T07:30:47;95302.53;;;39.40;22.69
72409;BME280;60402;48.082;11.628;2022-07-29T07:33:12;95302.53;;;39.40;22.27
72409;BME280;60402;48.082;11.628;2022-07-29T07:35:38;95320.00;;;38.89;23.61
72409;BME280;60402;48.082;11.628;2022-07-29T07:38:03;95315.66;;;38.78;23.61
72409;BME280;60402;48.082;11.628;2022-07-29T07:40:30;95300.38;;;39.77;22.48
72409;BME280;60402;48.082;11.628;2022-07-29T07:42:56;95306.81;;;40.36;21.24
72409;BME280;60402;48.082;11.628;2022-07-29T07:45:21;95315.91;;;41.33;20.06
72409;BME280;60402;48.082;11.628;2022-07-29T07:47:47;95305.50;;;37.91;23.39
72409;BME280;60402;48.082;11.628;2022-07-29T07:50:12;95313.47;;;39.86;21.81
72409;BME280;60402;48.082;11.628;2022-07-29T07:52:51;95303.88;;;40.11;20.62
72409;BME280;60402;48.082;11.628;2022-07-29T07:55:18;95303.56;;;38.74;22.31
72409;BME280;60402;48.082;11.628;2022-07-29T07:57:44;95298.88;;;39.65;21.17
72409;BME280;60402;48.082;11.628;2022-07-29T08:00:11;95312.31;;;38.95;22.35
72409;BME280;60402;48.082;11.628;2022-07-29T08:02:37;95309.31;;;39.19;21.90
72409;BME280;60402;48.082;11.628;2022-07-29T08:05:04;95314.97;;;39.38;20.49
72409;BME280;60402;48.082;11.628;2022-07-29T08:07:29;95304.06;;;39.17;21.33
72409;BME280;60402;48.082;11.628;2022-07-29T08:09:55;95308.47;;;38.93;21.89
72409;BME280;60402;48.082;11.628;2022-07-29T08:12:20;95316.91;;;39.45;20.99
72409;BME280;60402;48.082;11.628;2022-07-29T08:14:45;95302.09;;;40.31;19.95
72409;BME280;60402;48.082;11.628;2022-07-29T08:17:11;95309.28;;;38.03;23.06
72409;BME280;60402;48.082;11.628;2022-07-29T08:19:36;95309.22;;;38.81;21.49
72409;BME280;60402;48.082;11.628;2022-07-29T08:22:02;95309.13;;;36.53;24.04
72409;BME280;60402;48.082;11.628;2022-07-29T08:24:27;95325.28;;;39.02;21.67
72409;BME280;60402;48.082;11.628;2022-07-29T08:27:09;95320.84;;;39.61;21.06
72409;BME280;60402;48.082;11.628;2022-07-29T08:29:35;95319.25;;;37.77;22.75
72409;BME280;60402;48.082;11.628;2022-07-29T08:32:01;95309.16;;;37.80;22.98
72409;BME280;60402;48.082;11.628;2022-07-29T08:34:26;95307.09;;;38.04;23.06
72409;BME280;60402;48.082;11.628;2022-07-29T08:36:51;95302.09;;;37.52;23.58
72409;BME280;60402;48.082;11.628;2022-07-29T08:39:17;95297.56;;;35.00;26.35
72409;BME280;60402;48.082;11.628;2022-07-29T08:41:42;95299.44;;;32.34;30.01
72409;BME280;60402;48.082;11.628;2022-07-29T08:44:08;95295.72;;;32.66;30.85
72409;BME280;60402;48.082;11.628;2022-07-29T08:46:37;95305.06;;;32.89;30.19
72409;BME280;60402;48.082;11.628;2022-07-29T08:49:03;95308.19;;;33.09;29.53
72409;BME280;60402;48.082;11.628;2022-07-29T08:51:30;95310.97;;;33.24;30.68
72409;BME280;60402;48.082;11.628;2022-07-29T08:53:56;95310.63;;;32.52;30.59
72409;BME280;60402;48.082;11.628;2022-07-29T08:56:22;95296.69;;;32.43;31.29
72409;BME280;60402;48.082;11.628;2022-07-29T08:58:48;95286.00;;;31.65;33.40
72409;BME280;60402;48.082;11.628;2022-07-29T09:01:17;95296.13;;;31.64;33.23
72409;BME280;60402;48.082;11.628;2022-07-29T09:03:45;95310.13;;;31.10;33.56
72409;BME280;60402;48.082;11.628;2022-07-29T09:06:14;95317.88;;;31.30;33.69
72409;BME280;60402;48.082;11.628;2022-07-29T09:08:42;95316.56;;;30.86;34.07
72409;BME280;60402;48.082;11.628;2022-07-29T09:11:07;95315.41;;;30.96;34.99
72409;BME280;60402;48.082;11.628;2022-07-29T09:13:33;95318.91;;;30.95;33.82
72409;BME280;60402;48.082;11.628;2022-07-29T09:15:59;95313.69;;;30.40;35.45
72409;BME280;60402;48.082;11.628;2022-07-29T09:18:33;95313.09;;;30.49;35.53
72409;BME280;60402;48.082;11.628;2022-07-29T09:21:00;95314.22;;;30.15;35.79
72409;BME280;60402;48.082;11.628;2022-07-29T09:26:30;95310.19;;;31.58;33.19
72409;BME280;60402;48.082;11.628;2022-07-29T09:28:56;95293.59;;;31.05;34.91
72409;BME280;60402;48.082;11.628;2022-07-29T09:31:33;95306.84;;;30.29;36.05
72409;BME280;60402;48.082;11.628;2022-07-29T09:33:59;95307.25;;;30.57;35.28
72409;BME280;60402;48.082;11.628;2022-07-29T09:36:26;95295.97;;;30.76;35.78
72409;BME280;60402;48.082;11.628;2022-07-29T09:39:01;95301.56;;;31.04;35.68
72409;BME280;60402;48.082;11.628;2022-07-29T09:41:28;95299.84;;;30.94;35.17
72409;BME280;60402;48.082;11.628;2022-07-29T09:43:55;95302.16;;;31.03;35.62
72409;BME280;60402;48.082;11.628;2022-07-29T09:46:21;95298.28;;;30.62;36.29
72409;BME280;60402;48.082;11.628;2022-07-29T09:49:08;95295.59;;;30.72;35.51
72409;BME280;60402;48.082;11.628;2022-07-29T09:51:34;95291.75;;;29.72;36.26
72409;BME280;60402;48.082;11.628;2022-07-29T09:54:00;95297.72;;;28.86;38.67
72409;BME280;60402;48.082;11.628;2022-07-29T09:56:41;95299.00;;;28.98;38.42
72409;BME280;60402;48.082;11.628;2022-07-29T09:59:08;95299.16;;;29.29;39.38
72409;BME280;60402;48.082;11.628;2022-07-29T10:01:33;95289.38;;;28.83;39.36
72409;BME280;60402;48.082;11.628;2022-07-29T10:04:00;95295.53;;;28.79;39.34
72409;BME280;60402;48.082;11.628;2022-07-29T10:06:25;95293.03;;;28.75;39.69
72409;BME280;60402;48.082;11.628;2022-07-29T10:08:51;95290.25;;;28.70;40.06
72409;BME280;60402;48.082;11.628;2022-07-29T10:11:17;95290.31;;;28.28;40.95
72409;BME280;60402;48.082;11.628;2022-07-29T10:13:46;95298.34;;;28.35;40.52
72409;BME280;60402;48.082;11.628;2022-07-29T10:16:12;95286.94;;;27.95;41.04
72409;BME280;60402;48.082;11.628;2022-07-29T10:18:39;95295.22;;;27.91;41.83
72409;BME280;60402;48.082;11.628;2022-07-29T10:21:05;95294.47;;;27.43;43.10
72409;BME280;60402;48.082;11.628;2022-07-29T10:23:31;95292.13;;;27.29;43.84
72409;BME280;60402;48.082;11.628;2022-07-29T10:25:57;95296.81;;;27.45;43.31
72409;BME280;60402;48.082;11.628;2022-07-29T10:28:23;95287.16;;;27.29;44.25
72409;BME280;60402;48.082;11.628;2022-07-29T10:30:52;95294.72;;;27.19;44.68
72409;BME280;60402;48.082;11.628;2022-07-29T10:33:47;95291.28;;;27.07;43.89
72409;BME280;60402;48.082;11.628;2022-07-29T10:36:23;95299.44;;;26.82;44.29
72409;BME280;60402;48.082;11.628;2022-07-29T10:38:53;95297.44;;;26.64;44.86
72409;BME280;60402;48.082;11.628;2022-07-29T10:46:20;95294.56;;;26.18;44.93
72409;BME280;60402;48.082;11.628;2022-07-29T10:49:11;95301.19;;;26.00;45.93
72409;BME280;60402;48.082;11.628;2022-07-29T10:52:05;95298.13;;;26.11;45.96
72409;BME280;60402;48.082;11.628;2022-07-29T10:59:46;95292.41;;;27.17;44.25
72409;BME280;60402;48.082;11.628;2022-07-29T11:05:03;95290.38;;;28.15;43.26
72409;BME280;60402;48.082;11.628;2022-07-29T11:07:29;95274.38;;;28.42;41.23
72409;BME280;60402;48.082;11.628;2022-07-29T11:15:20;95282.28;;;28.42;41.07
72409;BME280;60402;48.082;11.628;2022-07-29T11:20:45;95297.16;;;28.88;40.43
72409;BME280;60402;48.082;11.628;2022-07-29T11:23:31;95282.94;;;28.76;39.35
72409;BME280;60402;48.082;11.628;2022-07-29T11:31:31;95281.16;;;28.45;40.51
72409;BME280;60402;48.082;11.628;2022-07-29T11:47:24;95263.81;;;28.11;35.63
72409;BME280;60402;48.082;11.628;2022-07-29T11:49:54;95245.38;;;28.08;34.63
72409;BME280;60402;48.082;11.628;2022-07-29T11:52:20;95245.03;;;28.12;36.13
72409;BME280;60402;48.082;11.628;2022-07-29T11:54:50;95241.78;;;27.94;36.19
72409;BME280;60402;48.082;11.628;2022-07-29T11:57:19;95264.09;;;28.41;36.73
72409;BME280;60402;48.082;11.628;2022-07-29T11:59:46;95259.84;;;28.21;37.07
72409;BME280;60402;48.082;11.628;2022-07-29T12:02:13;95258.84;;;28.19;37.02
72409;BME280;60402;48.082;11.628;2022-07-29T12:04:55;95267.06;;;28.07;37.37
72409;BME280;60402;48.082;11.628;2022-07-29T12:07:32;95242.00;;;28.38;37.15
72409;BME280;60402;48.082;11.628;2022-07-29T12:09:57;95251.72;;;28.77;37.29
72409;BME280;60402;48.082;11.628;2022-07-29T12:12:23;95247.56;;;28.36;37.71
72409;BME280;60402;48.082;11.628;2022-07-29T12:14:49;95246.91;;;28.51;37.29
72409;BME280;60402;48.082;11.628;2022-07-29T12:19:56;95238.00;;;28.49;37.38
72409;BME280;60402;48.082;11.628;2022-07-29T12:22:27;95239.50;;;28.42;36.80
72409;BME280;60402;48.082;11.628;2022-07-29T12:24:54;95236.03;;;28.44;36.96
72409;BME280;60402;48.082;11.628;2022-07-29T12:27:20;95228.69;;;28.50;37.91
72409;BME280;60402;48.082;11.628;2022-07-29T12:30:00;95232.78;;;28.55;36.21
72409;BME280;60402;48.082;11.628;2022-07-29T12:32:42;95223.00;;;28.37;37.21
72409;BME280;60402;48.082;11.628;2022-07-29T12:35:11;95227.31;;;28.44;37.04
72409;BME280;60402;48.082;11.628;2022-07-29T12:37:38;95230.50;;;28.12;37.22
72409;BME280;60402;48.082;11.628;2022-07-29T12:40:05;95218.44;;;28.00;36.57
72409;BME280;60402;48.082;11.628;2022-07-29T12:42:32;95235.78;;;28.42;36.46
72409;BME280;60402;48.082;11.628;2022-07-29T12:44:57;95235.66;;;28.26;36.18
72409;BME280;60402;48.082;11.628;2022-07-29T12:47:23;95224.47;;;28.31;35.71
72409;BME280;60402;48.082;11.628;2022-07-29T12:49:50;95226.09;;;28.39;36.69
72409;BME280;60402;48.082;11.628;2022-07-29T12:52:30;95225.19;;;28.81;36.56
72409;BME280;60402;48.082;11.628;2022-07-29T12:54:56;95232.69;;;28.68;36.99
72409;BME280;60402;48.082;11.628;2022-07-29T12:57:22;95227.34;;;28.88;35.63
72409;BME280;60402;48.082;11.628;2022-07-29T13:00:10;95228.59;;;28.35;37.15
72409;BME280;60402;48.082;11.628;2022-07-29T13:02:36;95228.84;;;27.95;37.80
72409;BME280;60402;48.082;11.628;2022-07-29T13:05:03;95233.06;;;28.15;37.21
72409;BME280;60402;48.082;11.628;2022-07-29T13:07:31;95230.50;;;28.12;37.09
72409;BME280;60402;48.082;11.628;2022-07-29T13:10:18;95227.38;;;28.31;36.92
72409;BME280;60402;48.082;11.628;2022-07-29T13:13:06;95232.84;;;28.13;37.45
72409;BME280;60402;48.082;11.628;2022-07-29T13:15:33;95234.50;;;28.01;38.02
72409;BME280;60402;48.082;11.628;2022-07-29T13:17:58;95230.41;;;27.96;39.05
72409;BME280;60402;48.082;11.628;2022-07-29T13:20:26;95229.16;;;28.13;38.41
72409;BME280;60402;48.082;11.628;2022-07-29T13:22:55;95221.94;;;27.64;38.71
72409;BME280;60402;48.082;11.628;2022-07-29T13:25:26;95208.50;;;27.74;37.64
72409;BME280;60402;48.082;11.628;2022-07-29T13:27:52;95209.84;;;27.73;37.43
72409;BME280;60402;48.082;11.628;2022-07-29T13:30:20;95215.97;;;27.49;38.44
72409;BME280;60402;48.082;11.628;2022-07-29T13:32:46;95223.34;;;27.16;39.00
72409;BME280;60402;48.082;11.628;2022-07-29T13:35:12;95217.13;;;26.98;39.89
72409;BME280;60402;48.082;11.628;2022-07-29T13:37:38;95221.03;;;27.01;39.84
72409;BME280;60402;48.082;11.628;2022-07-29T13:40:07;95208.47;;;26.72;40.68
72409;BME280;60402;48.082;11.628;2022-07-29T13:42:32;95212.94;;;26.73;41.06
72409;BME280;60402;48.082;11.628;2022-07-29T13:44:58;95220.50;;;26.76;42.66
72409;BME280;60402;48.082;11.628;2022-07-29T13:47:24;95208.38;;;26.64;43.39
72409;BME280;60402;48.082;11.628;2022-07-29T13:49:49;95208.47;;;26.72;43.26
72409;BME280;60402;48.082;11.628;2022-07-29T13:52:15;95207.34;;;26.75;43.35